Home   Weather   United Kingdom   Salisbury   Past weeks
Flag for United Kingdom

Past Weather in Salisbury, England, United Kingdom — Yesterday and Last 2 Weeks

Currently: 27 °F. Chilly. (Weather station: Boscombe Down, United Kingdom). See more current weather

Past Weather in Salisbury — Graph

°F

Salisbury Temperature Yesterday

Maximum temperature yesterday: 48 °F (at 12:50 pm)
Minimum temperature yesterday: 28 °F (at 10:50 pm)
Average temperature yesterday: 37 °F

High & Low Weather Summary for the Past Weeks

 TemperatureHumidityPressure
High52 °F (Jan 31, 1:50 pm)100% (Jan 23, 7:20 am)30.89 "Hg (Jan 23, 7:20 am)
Low23 °F (Jan 25, 12:50 am)54% (Feb 6, 1:20 pm)30.18 "Hg (Jan 30, 1:20 am)
Average40 °F86%30.49 "Hg
* Reported Jan 23 4:20 am — Feb 7 4:50 am, Salisbury. Weather by CustomWeather, © 2023

Note: Actual official high and low records may vary slightly from our data, if they occured in-between our weather recording intervals... More about our weather records

Salisbury Weather History for the Previous 24 Hours

Scroll right to see more
 ConditionsComfort  
Time TempWeatherWind HumidityBarometerVisibility
4:50 am
Tue, Feb 7
28 °FChilly.3 mph100%30.66 "HgN/A
4:20 am27 °FChilly.7 mph100%30.66 "HgN/A
3:50 am28 °FChilly.5 mph93%30.63 "HgN/A
3:20 am30 °FChilly.1 mph93%30.63 "Hg6 mi
2:50 am28 °FIce fog.3 mph93%30.66 "HgN/A
2:20 am28 °FChilly.6 mph93%30.66 "HgN/A
1:50 am28 °FChilly.3 mph93%30.66 "HgN/A
1:20 am30 °FChilly.6 mph93%30.66 "HgN/A
12:50 am30 °FChilly.7 mph93%30.66 "HgN/A
11:20 pm
Mon, Feb 6
28 °FChilly.6 mph93%30.66 "HgN/A
10:50 pm28 °FChilly.5 mph80%30.66 "HgN/A
9:50 pm36 °FPassing clouds.3 mph87%30.66 "HgN/A
9:20 pm34 °FChilly.6 mph87%30.66 "HgN/A
8:50 pm36 °FChilly.5 mph81%30.66 "HgN/A
8:20 pm36 °FChilly.5 mph87%30.66 "HgN/A
7:50 pm37 °FChilly.6 mph81%30.66 "HgN/A
7:20 pm39 °FChilly.3 mph75%30.66 "HgN/A
6:50 pm39 °FPassing clouds.2 mph75%30.66 "HgN/A
5:50 pm41 °FQuite cool.1 mph70%30.69 "HgN/A
5:20 pm43 °FQuite cool.No wind71%30.69 "HgN/A
4:50 pm45 °FQuite cool.3 mph66%30.66 "HgN/A
3:50 pm48 °FSunny.6 mph58%30.69 "Hg10 mi
3:20 pm48 °FSunny.6 mph54%30.69 "Hg10 mi
2:50 pm48 °FSunny.6 mph58%30.72 "Hg10 mi
2:20 pm48 °FSunny.6 mph58%30.72 "Hg10 mi
1:50 pm48 °FSunny.7 mph54%30.72 "Hg10 mi
1:20 pm48 °FSunny.7 mph54%30.72 "Hg10 mi
12:50 pm48 °FCool.9 mph58%30.72 "HgN/A
11:50 am45 °FSunny.7 mph76%30.74 "Hg10 mi
11:20 am43 °FSunny.7 mph81%30.77 "Hg10 mi
10:50 am43 °FSunny.5 mph81%30.77 "Hg10 mi
10:20 am39 °FSunny.2 mph87%30.77 "Hg10 mi
9:50 am37 °FSunny.2 mph87%30.77 "Hg10 mi
9:20 am36 °FFog.1 mph87%30.77 "HgN/A
8:20 am32 °FFog.2 mph93%30.77 "HgN/A
7:50 am30 °FFog.2 mph93%30.80 "HgN/A
7:20 am32 °FOvercast.2 mph93%30.80 "HgN/A
6:50 am30 °FFog.2 mph93%30.80 "HgN/A
Weather by CustomWeather, © 2023

See weather overview